Flight Track Log - Related Links

Times and Time Zones

All times are in EDT time to prevent confusion due to time zone crossing. See the KAP305 flight status page for this flight to view local times or setup timezone preferences in your user account.

Time Position Orientation Groundspeed Altitude Reporting Facility
EDT Latitude Longitude Course Direction KTS MPH feet Rate Location/Type
Tue 07:50:28 AM 42.7611 -73.6194 87° East 122 140 3,100  Level Boston Center
Tue 07:51:59 AM 42.7639 -73.5486 87° East 133 153 3,800 532 Climbing Boston Center
Tue 07:53:06 AM 42.7686 -73.4836 84° East 140 161 4,500 614 Climbing Boston Center
Tue 07:54:06 AM 42.7692 -73.4300 89° East 144 166 5,100 545 Climbing Boston Center
Tue 07:55:07 AM 42.7758 -73.3764 80° East 146 168 5,600 517 Climbing Boston Center
Tue 07:56:02 AM 42.7722 -73.3197 95° East 153 176 6,100 522 Climbing Boston Center
Tue 07:57:02 AM 42.7622 -73.2603 103° East 159 183 6,600 432 Climbing Boston Center
Tue 07:58:07 AM 42.7542 -73.2036 101° East 181 208 7,000 192 Climbing Boston Center
Tue 07:59:07 AM 42.7400 -73.1356 106° East 181 208 7,000  Level Boston Center
Tue 08:00:07 AM 42.7258 -73.0592 104° East 181 208 7,000  Level Boston Center
Tue 08:01:07 AM 42.7139 -72.9883 103° East 181 208 7,000  Level Boston Center
Tue 08:02:07 AM 42.7036 -72.9175 101° East 181 208 7,000  Level Boston Center
Tue 08:03:07 AM 42.6894 -72.8469 105° East 181 208 7,000  Level Boston Center
Tue 08:04:07 AM 42.6792 -72.7789 102° East 181 208 7,000  Level Boston Center
Tue 08:05:07 AM 42.6669 -72.7111 104° East 181 208 7,000  Level Boston Center
Tue 08:06:07 AM 42.6544 -72.6406 104° East 181 208 7,000  Level Boston Center
Tue 08:07:07 AM 42.6422 -72.5728 104° East 181 208 7,000  Level Boston Center
Tue 08:08:07 AM 42.6317 -72.5022 101° East 181 208 7,000  Level Boston Center
Tue 08:09:07 AM 42.6172 -72.4344 106° East 181 208 7,000  Level Boston Center
Tue 08:10:07 AM 42.6047 -72.3639 104° East 181 208 7,000  Level Boston Center
Tue 08:11:07 AM 42.5919 -72.2961 104° East 181 208 7,000  Level Boston Center
Tue 08:12:19 AM 42.5775 -72.2286 106° East 186 214 7,000  Level Boston Center
Tue 08:13:19 AM 42.5606 -72.1469 106° East 186 214 7,000  Level Boston Center
Tue 08:14:19 AM 42.5478 -72.0708 103° East 186 214 7,000  Level Boston Center
Tue 08:15:19 AM 42.5414 -72.0061 98° East 185 213 7,000  Level Boston Center
Tue 08:16:19 AM 42.5347 -71.9244 96° East 185 213 7,000  Level Boston Center
Tue 08:17:19 AM 42.5281 -71.8625 98° East 185 213 7,000  Level Boston Center
Tue 08:18:19 AM 42.5214 -71.7839 97° East 185 213 7,000  Level Boston Center
Tue 08:19:19 AM 42.5169 -71.7189 95° East 191 220 7,000  Level Boston Center
Tue 08:20:19 AM 42.5100 -71.6403 97° East 191 220 7,000  Level Boston Center
Tue 08:20:59 AM 42.5000 -71.5833 103° East 192 221 7,000  Level KA90
Tue 08:21:59 AM 42.5000 -71.5167 90° East 194 223 7,000 -250 Level KA90
Tue 08:22:59 AM 42.4833 -71.4500 109° East 201 231 6,500 -526 Descending KA90
Tue 08:23:53 AM 42.4833 -71.3667 90° East 218 251 6,000 -579 Descending KA90
Tue 08:24:53 AM 42.4667 -71.2833 105° East 213 245 5,400 -500 Descending KA90
Tue 08:25:53 AM 42.4667 -71.2167 90° East 205 236 5,000 -190 Descending KA90
Tue 08:26:59 AM 42.4500 -71.1500 109° East 183 211 5,000  Level KA90
Tue 08:27:59 AM 42.4000 -71.1667 194° South 160 184 5,000 -200 Level KA90
Tue 08:28:59 AM 42.3667 -71.1833 200° South 168 193 4,600 -326 Descending KA90
Tue 08:29:31 AM 42.3519 -71.1900 199° South 167 192 4,500 -652 Descending Boston Center
Tue 08:30:31 AM 42.2869 -71.1744 170° South 182 209 3,600 -750 Descending Boston Center
Tue 08:31:31 AM 42.2492 -71.1358 143° Southeast 188 216 3,000 -701 Descending Boston Center
Tue 08:33:05 AM 42.2833 -71.0500 62° Northeast 162 186 1,800 -838 Descending KA90
Tue 08:33:47 AM 42.3167 -71.0333 20° North 150 173 1,100 -833 Descending KA90
Tue 08:34:53 AM 42.3500 -71.0167 20° North 126 145 300 -727 Descending KA90
Tue 08:36:00 AM 42.3630 -71.0064 31° Northeast  Level Estimated
Tue 08:43:00 AM 42.3630 -71.0064 204° Southwest  Level Estimated

Login

Don't have an account? Register now (free) for customized features, flight alerts, and more!